createdAt,value
2023-03-06T00:01:23.360Z,24.16
2023-03-06T00:03:54.313Z,24.02
2023-03-06T00:06:27.556Z,24.01
2023-03-06T00:08:57.612Z,24.11
2023-03-06T00:11:28.338Z,24.15
2023-03-06T00:13:58.294Z,24.00
2023-03-06T00:16:30.518Z,23.96
2023-03-06T00:19:00.605Z,24.09
2023-03-06T00:21:34.207Z,24.07
2023-03-06T00:24:04.167Z,24.11
2023-03-06T00:26:35.234Z,24.06
2023-03-06T00:29:06.055Z,24.05
2023-03-06T00:31:39.317Z,23.98
2023-03-06T00:34:09.839Z,23.95
2023-03-06T00:36:39.990Z,23.94
2023-03-06T00:39:12.085Z,23.93
2023-03-06T00:41:42.352Z,23.81
2023-03-06T00:44:12.870Z,23.86
2023-03-06T00:46:45.758Z,23.89
2023-03-06T00:49:16.468Z,23.98
2023-03-06T00:51:47.096Z,23.88
2023-03-06T00:54:17.695Z,23.70
2023-03-06T00:56:50.900Z,23.69
2023-03-06T00:59:25.356Z,23.79
2023-03-06T01:01:56.478Z,23.75
2023-03-06T01:04:30.079Z,23.71
2023-03-06T01:06:59.984Z,23.77
2023-03-06T01:09:30.394Z,23.71
2023-03-06T01:12:01.588Z,23.83
2023-03-06T01:14:32.596Z,23.85
2023-03-06T01:17:02.861Z,23.82
2023-03-06T01:19:33.115Z,23.83
2023-03-06T01:22:05.244Z,23.74
2023-03-06T01:24:34.987Z,23.62
2023-03-06T01:27:04.655Z,23.67
2023-03-06T01:29:35.013Z,23.64
2023-03-06T01:32:05.116Z,23.72
2023-03-06T01:34:35.405Z,23.68
2023-03-06T01:37:05.262Z,23.70
2023-03-06T01:39:34.888Z,23.79
2023-03-06T01:42:06.124Z,23.91
2023-03-06T01:44:36.245Z,23.83
2023-03-06T01:47:06.695Z,23.85
2023-03-06T01:49:40.477Z,23.95
2023-03-06T01:52:19.028Z,23.89
2023-03-06T01:54:55.168Z,23.94
2023-03-06T01:57:32.030Z,23.95
2023-03-06T02:00:08.645Z,23.97
2023-03-06T02:02:49.111Z,23.98
2023-03-06T02:05:19.169Z,23.90
2023-03-06T02:07:50.306Z,23.86
2023-03-06T02:10:21.885Z,23.89
2023-03-06T02:12:55.281Z,23.96
2023-03-06T02:15:26.989Z,23.90
2023-03-06T02:17:57.697Z,23.92
2023-03-06T02:20:27.412Z,23.91
2023-03-06T02:23:14.286Z,23.94
2023-03-06T02:25:50.856Z,23.86
2023-03-06T02:28:24.353Z,23.90
2023-03-06T02:30:57.004Z,23.71
2023-03-06T02:33:29.340Z,23.45
2023-03-06T02:36:02.572Z,23.16
2023-03-06T02:38:42.124Z,23.14
2023-03-06T02:41:13.788Z,23.12
2023-03-06T02:43:46.131Z,23.26
2023-03-06T02:46:16.453Z,23.32
2023-03-06T02:48:46.336Z,23.28
2023-03-06T02:51:16.564Z,23.50
2023-03-06T02:53:46.337Z,23.49
2023-03-06T02:56:17.586Z,23.39
2023-03-06T02:58:47.973Z,23.24
2023-03-06T03:01:18.188Z,23.23
2023-03-06T03:03:47.844Z,23.26
2023-03-06T03:06:17.993Z,23.24
2023-03-06T03:08:48.748Z,23.23
2023-03-06T03:11:18.737Z,23.20
2023-03-06T03:13:49.613Z,23.18
2023-03-06T03:16:24.933Z,23.23
2023-03-06T03:18:55.171Z,23.26
2023-03-06T03:21:25.811Z,23.24
2023-03-06T03:23:57.940Z,23.27
2023-03-06T03:26:30.565Z,23.22
2023-03-06T03:29:06.292Z,23.23
2023-03-06T03:31:36.210Z,23.22
2023-03-06T03:34:06.787Z,23.18
2023-03-06T03:36:39.977Z,23.14
2023-03-06T03:39:11.964Z,23.19
2023-03-06T03:41:43.625Z,23.16
2023-03-06T03:44:14.929Z,23.21
2023-03-06T03:46:45.247Z,23.15
2023-03-06T03:49:20.964Z,23.19
2023-03-06T03:51:51.085Z,23.19
2023-03-06T03:54:22.728Z,23.11
2023-03-06T03:56:54.909Z,23.16
2023-03-06T03:59:33.253Z,23.15
2023-03-06T04:02:13.336Z,23.21
2023-03-06T04:04:52.232Z,23.14
2023-03-06T04:07:22.201Z,23.05
2023-03-06T04:09:52.426Z,23.05
2023-03-06T04:12:23.107Z,23.04
2023-03-06T04:14:53.371Z,23.01
2023-03-06T04:17:24.184Z,22.97
2023-03-06T04:19:55.981Z,23.00
2023-03-06T04:22:26.061Z,22.99
2023-03-06T04:24:56.418Z,22.98
2023-03-06T04:27:26.331Z,22.95
2023-03-06T04:29:57.484Z,22.96
2023-03-06T04:32:27.651Z,22.96
2023-03-06T04:34:58.742Z,22.94
2023-03-06T04:37:30.896Z,22.97
2023-03-06T04:40:02.446Z,22.98
2023-03-06T04:42:32.585Z,22.90
2023-03-06T04:45:02.193Z,22.95
2023-03-06T04:47:32.454Z,23.01
2023-03-06T04:50:02.247Z,23.00
2023-03-06T04:52:33.198Z,22.92
2023-03-06T04:55:05.335Z,22.99
2023-03-06T04:57:35.123Z,23.04
2023-03-06T05:00:12.391Z,23.06
2023-03-06T05:02:44.900Z,23.04
2023-03-06T05:05:15.590Z,23.00
2023-03-06T05:07:46.398Z,23.00
2023-03-06T05:10:19.203Z,22.98
2023-03-06T05:12:50.054Z,22.99
2023-03-06T05:15:20.120Z,22.99
2023-03-06T05:17:50.502Z,22.91
2023-03-06T05:20:20.427Z,22.87
2023-03-06T05:22:50.673Z,22.90
2023-03-06T05:25:20.281Z,22.93
2023-03-06T05:27:50.093Z,22.97
2023-03-06T05:30:22.310Z,22.99
2023-03-06T05:32:52.938Z,23.01
2023-03-06T05:35:24.943Z,22.99
2023-03-06T05:37:54.735Z,22.97
2023-03-06T05:40:24.382Z,22.93
2023-03-06T05:42:54.569Z,22.96
2023-03-06T05:45:24.396Z,22.97
2023-03-06T05:47:54.589Z,22.99
2023-03-06T05:50:24.358Z,23.00
2023-03-06T05:52:54.208Z,23.00
2023-03-06T05:55:25.492Z,22.99
2023-03-06T05:57:55.559Z,23.02
2023-03-06T06:00:26.339Z,23.06
2023-03-06T06:02:56.131Z,23.04
2023-03-06T06:05:26.341Z,23.06
2023-03-06T06:07:58.007Z,23.08
2023-03-06T06:10:28.206Z,23.06
2023-03-06T06:12:57.981Z,22.89
2023-03-06T06:15:29.937Z,22.92
2023-03-06T06:18:00.299Z,22.88
2023-03-06T06:20:30.097Z,22.91
2023-03-06T06:22:59.821Z,22.89
2023-03-06T06:25:30.117Z,22.78
2023-03-06T06:27:59.779Z,22.86
2023-03-06T06:30:30.235Z,22.83
2023-03-06T06:33:00.517Z,22.74
2023-03-06T06:35:30.726Z,22.78
2023-03-06T06:38:00.543Z,22.76
2023-03-06T06:40:30.800Z,22.77
2023-03-06T06:43:00.594Z,22.78
2023-03-06T06:45:30.771Z,22.83
2023-03-06T06:48:00.700Z,22.82
2023-03-06T06:50:30.980Z,22.83
2023-03-06T06:53:00.784Z,22.75
2023-03-06T06:55:31.031Z,22.77
2023-03-06T06:58:00.883Z,22.76
2023-03-06T07:00:31.232Z,22.69
2023-03-06T07:03:01.071Z,22.75
2023-03-06T07:05:31.220Z,22.80
2023-03-06T07:08:01.045Z,22.84
2023-03-06T07:10:30.823Z,22.77
2023-03-06T07:13:01.797Z,22.81
2023-03-06T07:15:31.978Z,22.68
2023-03-06T07:18:02.544Z,22.73
2023-03-06T07:20:33.096Z,22.78
2023-03-06T07:23:03.516Z,22.68
2023-03-06T07:25:33.308Z,22.63
2023-03-06T07:28:03.588Z,22.59
2023-03-06T07:30:33.618Z,22.59
2023-03-06T07:33:04.113Z,22.57
2023-03-06T07:35:33.943Z,22.53
2023-03-06T07:38:04.293Z,22.52
2023-03-06T07:40:34.068Z,22.52
2023-03-06T07:43:18.280Z,22.58
2023-03-06T07:46:00.765Z,22.61
2023-03-06T07:48:31.001Z,22.56
2023-03-06T07:51:03.328Z,22.74
2023-03-06T07:53:34.468Z,22.88
2023-03-06T07:56:10.059Z,22.88
2023-03-06T07:58:42.519Z,22.83
2023-03-06T08:01:24.616Z,22.89
2023-03-06T08:03:55.398Z,22.98
2023-03-06T08:06:28.016Z,22.89
2023-03-06T08:08:58.840Z,22.87
2023-03-06T08:11:31.543Z,22.86
2023-03-06T08:14:01.856Z,22.80
2023-03-06T08:16:32.256Z,22.76
2023-03-06T08:19:02.549Z,22.80
2023-03-06T08:21:32.349Z,22.79
2023-03-06T08:24:01.985Z,22.79
2023-03-06T08:26:33.664Z,22.86
2023-03-06T08:29:04.654Z,22.79
2023-03-06T08:31:44.161Z,22.74
2023-03-06T08:34:23.858Z,22.77
2023-03-06T08:36:54.595Z,22.71
2023-03-06T08:39:24.873Z,22.79
2023-03-06T08:41:55.047Z,22.80
2023-03-06T08:44:24.883Z,22.89
2023-03-06T08:46:55.086Z,22.97
2023-03-06T08:49:24.901Z,22.94
2023-03-06T08:51:56.922Z,22.94
2023-03-06T08:54:29.368Z,22.98
2023-03-06T08:56:59.079Z,23.02
2023-03-06T08:59:29.267Z,22.99
2023-03-06T09:01:58.930Z,22.99
2023-03-06T09:04:32.634Z,23.11
2023-03-06T09:07:02.913Z,23.08
2023-03-06T09:09:32.835Z,23.04
2023-03-06T09:12:03.194Z,23.09
2023-03-06T09:14:33.403Z,23.07
2023-03-06T09:17:03.569Z,23.04
2023-03-06T09:19:33.186Z,23.12
2023-03-06T09:22:02.963Z,23.11
2023-03-06T09:24:33.977Z,23.06
2023-03-06T09:27:04.024Z,23.09
2023-03-06T09:29:34.219Z,23.09
2023-03-06T09:32:04.616Z,23.12
2023-03-06T09:34:34.470Z,23.08
2023-03-06T09:37:05.298Z,23.06
2023-03-06T09:39:35.041Z,23.05
2023-03-06T09:42:10.059Z,23.12
2023-03-06T09:44:42.362Z,22.96
2023-03-06T09:47:32.807Z,23.01
2023-03-06T09:50:09.801Z,23.02
2023-03-06T09:52:53.729Z,23.03
2023-03-06T09:55:28.304Z,23.06
2023-03-06T09:58:21.473Z,23.13
2023-03-06T10:01:26.622Z,23.16
2023-03-06T10:04:08.637Z,23.08
2023-03-06T10:06:49.856Z,23.03
2023-03-06T10:09:39.806Z,23.12
2023-03-06T10:12:31.858Z,22.93
2023-03-06T10:15:26.955Z,22.93
2023-03-06T10:17:58.661Z,23.08
2023-03-06T10:20:37.853Z,23.16
2023-03-06T10:23:43.909Z,23.25
2023-03-06T10:26:39.527Z,23.31
2023-03-06T10:29:15.805Z,23.29
2023-03-06T10:31:50.878Z,23.31
2023-03-06T10:34:29.102Z,23.28
2023-03-06T10:37:03.610Z,23.25
2023-03-06T10:39:34.007Z,23.32
2023-03-06T10:42:04.336Z,23.27
2023-03-06T10:44:34.135Z,23.39
2023-03-06T10:47:32.158Z,23.29
2023-03-06T10:50:05.630Z,23.32
2023-03-06T10:52:38.055Z,23.39
2023-03-06T10:55:30.372Z,23.49
2023-03-06T10:58:19.752Z,23.38
2023-03-06T11:01:01.023Z,23.49
2023-03-06T11:03:31.874Z,23.51
2023-03-06T11:06:15.191Z,23.67
2023-03-06T11:08:46.030Z,23.85
2023-03-06T11:11:36.682Z,23.81
2023-03-06T11:14:19.389Z,23.79
2023-03-06T11:16:54.344Z,24.04
2023-03-06T11:19:29.188Z,24.21
2023-03-06T11:22:27.211Z,24.34
2023-03-06T11:24:57.665Z,24.07
2023-03-06T11:27:35.667Z,24.02
2023-03-06T11:30:18.181Z,24.09
2023-03-06T11:32:55.139Z,24.04
2023-03-06T11:35:37.229Z,24.07
2023-03-06T11:38:15.881Z,23.96
2023-03-06T11:40:48.065Z,23.91
2023-03-06T11:43:20.783Z,23.88
2023-03-06T11:46:06.983Z,23.89
2023-03-06T11:48:45.098Z,23.98
2023-03-06T11:51:26.951Z,23.96
2023-03-06T11:54:00.066Z,24.18
2023-03-06T11:56:45.185Z,24.34
2023-03-06T11:59:29.990Z,24.63
2023-03-06T12:02:15.244Z,24.97
2023-03-06T12:05:03.627Z,25.04
2023-03-06T12:08:18.646Z,25.17
2023-03-06T12:11:03.072Z,25.15
2023-03-06T12:13:46.691Z,24.92
2023-03-06T12:16:24.037Z,24.79
2023-03-06T12:19:17.627Z,24.53
2023-03-06T12:21:56.380Z,24.50
2023-03-06T12:24:38.892Z,24.44
2023-03-06T12:27:20.175Z,24.45
2023-03-06T12:30:22.170Z,24.34
2023-03-06T12:33:21.236Z,24.19
2023-03-06T12:36:18.848Z,24.05
2023-03-06T12:39:02.568Z,24.21
2023-03-06T12:41:43.237Z,24.60
2023-03-06T12:44:19.163Z,24.66
2023-03-06T12:47:13.110Z,24.39
2023-03-06T12:49:49.892Z,24.32
2023-03-06T12:52:31.134Z,24.41
2023-03-06T12:55:02.805Z,24.66
2023-03-06T12:57:32.993Z,24.92
2023-03-06T13:00:02.801Z,25.06
2023-03-06T13:03:04.025Z,25.14
2023-03-06T13:05:57.068Z,25.09
2023-03-06T13:08:58.804Z,24.99
2023-03-06T13:11:56.451Z,24.98
2023-03-06T13:14:48.658Z,25.04
2023-03-06T13:17:22.656Z,24.90
2023-03-06T13:20:25.378Z,24.92
2023-03-06T13:22:55.602Z,25.02
2023-03-06T13:25:39.713Z,25.24
2023-03-06T13:28:25.221Z,25.54
2023-03-06T13:30:55.293Z,26.36
2023-03-06T13:33:32.847Z,28.07
2023-03-06T13:36:28.931Z,29.40
2023-03-06T13:39:00.169Z,29.37
2023-03-06T13:41:32.681Z,29.39
2023-03-06T13:44:22.410Z,29.28
2023-03-06T13:47:05.992Z,29.08
2023-03-06T13:49:37.184Z,29.31
2023-03-06T13:52:31.319Z,29.15
2023-03-06T13:55:45.022Z,29.11
2023-03-06T13:58:29.744Z,29.32
2023-03-06T14:01:20.924Z,29.05
2023-03-06T14:04:08.924Z,29.18
2023-03-06T14:06:39.610Z,28.85
2023-03-06T14:09:32.241Z,28.48
2023-03-06T14:12:39.200Z,27.75
2023-03-06T14:15:43.237Z,27.31
2023-03-06T14:18:18.714Z,26.85
2023-03-06T14:20:57.575Z,26.34
2023-03-06T14:23:43.594Z,25.87
2023-03-06T14:26:21.706Z,25.72
2023-03-06T14:28:54.598Z,25.69
2023-03-06T14:31:27.363Z,25.54
2023-03-06T14:34:01.026Z,25.73
2023-03-06T14:36:47.765Z,25.97
2023-03-06T14:39:32.706Z,25.84
2023-03-06T14:42:17.421Z,25.82
2023-03-06T14:44:49.424Z,25.71
2023-03-06T14:47:28.231Z,25.32
2023-03-06T14:50:20.429Z,25.10
2023-03-06T14:52:51.926Z,25.12
2023-03-06T14:55:25.818Z,25.09
2023-03-06T14:58:08.760Z,25.23
2023-03-06T15:00:42.847Z,25.19
2023-03-06T15:03:23.235Z,25.39
2023-03-06T15:05:54.290Z,25.58
2023-03-06T15:08:35.308Z,25.73
2023-03-06T15:11:08.185Z,25.79
2023-03-06T15:13:38.039Z,25.87
2023-03-06T15:16:17.044Z,25.65
2023-03-06T15:19:06.205Z,25.80
2023-03-06T15:21:40.264Z,25.96
2023-03-06T15:24:38.241Z,25.94
2023-03-06T15:27:17.796Z,25.65
2023-03-06T15:29:47.559Z,25.38
2023-03-06T15:32:34.289Z,25.33
2023-03-06T15:35:38.191Z,25.20
2023-03-06T15:38:39.046Z,25.28
2023-03-06T15:41:22.415Z,25.33
2023-03-06T15:43:54.364Z,25.25
2023-03-06T15:46:24.092Z,25.12
2023-03-06T15:48:56.228Z,25.13
2023-03-06T15:51:26.900Z,24.96
2023-03-06T15:54:09.956Z,24.98
2023-03-06T15:56:44.300Z,24.87
2023-03-06T15:59:25.983Z,24.78
2023-03-06T16:01:56.158Z,24.68
2023-03-06T16:04:26.444Z,24.45
2023-03-06T16:06:56.238Z,24.39
2023-03-06T16:09:26.462Z,24.43
2023-03-06T16:11:56.284Z,24.38
2023-03-06T16:14:26.636Z,24.38
2023-03-06T16:16:57.701Z,24.36
2023-03-06T16:19:28.542Z,24.47
2023-03-06T16:21:58.344Z,24.48
2023-03-06T16:24:29.363Z,24.51
2023-03-06T16:27:02.596Z,24.59
2023-03-06T16:29:33.334Z,24.49
2023-03-06T16:32:03.347Z,24.53
2023-03-06T16:34:33.767Z,24.55
2023-03-06T16:37:03.449Z,24.52
2023-03-06T16:39:33.932Z,24.49
2023-03-06T16:42:03.487Z,24.49
2023-03-06T16:44:33.786Z,24.53
2023-03-06T16:47:03.571Z,24.53
2023-03-06T16:49:33.916Z,24.51
2023-03-06T16:52:05.697Z,24.40
2023-03-06T16:54:35.995Z,24.48
2023-03-06T16:57:05.696Z,24.44
2023-03-06T16:59:36.043Z,24.38
2023-03-06T17:02:06.137Z,24.31
2023-03-06T17:04:36.725Z,24.31
2023-03-06T17:07:06.782Z,24.20
2023-03-06T17:09:37.093Z,24.02
2023-03-06T17:12:07.453Z,24.08
2023-03-06T17:14:39.602Z,24.04
2023-03-06T17:17:10.105Z,24.04
2023-03-06T17:19:40.564Z,23.99
2023-03-06T17:22:10.882Z,23.98
2023-03-06T17:24:40.453Z,24.03
2023-03-06T17:27:10.636Z,24.06
2023-03-06T17:29:40.918Z,24.09
2023-03-06T17:32:10.595Z,24.15
2023-03-06T17:34:40.841Z,24.17
2023-03-06T17:37:11.006Z,24.03
2023-03-06T17:39:41.048Z,24.13
2023-03-06T17:42:11.321Z,24.10
2023-03-06T17:44:41.247Z,24.14
2023-03-06T17:47:11.478Z,24.21
2023-03-06T17:49:41.333Z,24.30
2023-03-06T17:52:12.211Z,24.31
2023-03-06T17:54:42.393Z,24.28
2023-03-06T17:57:12.655Z,24.30
2023-03-06T17:59:47.868Z,24.31
2023-03-06T18:02:18.856Z,24.26
2023-03-06T18:04:48.821Z,24.33
2023-03-06T18:07:18.965Z,24.40
2023-03-06T18:09:49.722Z,24.34
2023-03-06T18:12:19.846Z,24.36
2023-03-06T18:14:51.831Z,24.28
2023-03-06T18:17:22.066Z,24.31
2023-03-06T18:19:53.391Z,24.34
2023-03-06T18:22:23.735Z,24.38
2023-03-06T18:24:53.999Z,24.33
2023-03-06T18:27:24.185Z,24.31
2023-03-06T18:29:54.316Z,24.27
2023-03-06T18:32:24.591Z,24.26
2023-03-06T18:34:56.293Z,24.19
2023-03-06T18:37:26.532Z,24.05
2023-03-06T18:39:56.707Z,23.97
2023-03-06T18:42:27.410Z,24.08
2023-03-06T18:44:57.613Z,24.07
2023-03-06T18:47:27.732Z,24.15
2023-03-06T18:49:58.068Z,24.07
2023-03-06T18:52:28.405Z,24.05
2023-03-06T18:54:58.735Z,24.05
2023-03-06T18:57:30.299Z,24.07
2023-03-06T19:00:00.403Z,24.14
2023-03-06T19:02:30.853Z,24.16
2023-03-06T19:05:01.080Z,24.12
2023-03-06T19:07:30.700Z,24.05
2023-03-06T19:10:00.881Z,24.07
2023-03-06T19:12:30.892Z,24.08
2023-03-06T19:15:01.141Z,24.04
2023-03-06T19:17:32.529Z,24.14
2023-03-06T19:20:04.633Z,24.17
2023-03-06T19:22:36.640Z,24.03
2023-03-06T19:25:09.023Z,24.02
2023-03-06T19:27:40.533Z,24.08
2023-03-06T19:30:11.697Z,24.17
2023-03-06T19:32:46.777Z,24.19
2023-03-06T19:35:17.148Z,24.08
2023-03-06T19:37:47.374Z,24.07
2023-03-06T19:40:17.101Z,24.16
2023-03-06T19:42:48.018Z,24.09
2023-03-06T19:45:17.917Z,24.07
2023-03-06T19:47:48.121Z,24.12
2023-03-06T19:50:17.981Z,24.16
2023-03-06T19:52:48.290Z,24.29
2023-03-06T19:55:17.970Z,24.39
2023-03-06T19:57:50.147Z,24.35
2023-03-06T20:00:20.881Z,24.48
2023-03-06T20:02:51.029Z,24.47
2023-03-06T20:05:21.307Z,24.57
2023-03-06T20:07:51.301Z,24.58
2023-03-06T20:10:21.645Z,24.55
2023-03-06T20:12:51.544Z,24.54
2023-03-06T20:15:23.396Z,24.62
2023-03-06T20:17:54.841Z,24.65
2023-03-06T20:20:26.338Z,24.66
2023-03-06T20:22:56.193Z,24.72
2023-03-06T20:25:26.612Z,24.70
2023-03-06T20:27:56.776Z,24.76
2023-03-06T20:30:36.680Z,24.70
2023-03-06T20:33:08.341Z,24.72
2023-03-06T20:35:43.673Z,24.71
2023-03-06T20:38:14.075Z,24.79
2023-03-06T20:40:44.376Z,24.82
2023-03-06T20:43:14.734Z,24.86
2023-03-06T20:45:56.661Z,24.84
2023-03-06T20:48:26.902Z,24.81
2023-03-06T20:51:18.165Z,24.76
2023-03-06T20:53:50.296Z,24.74
2023-03-06T20:56:23.833Z,24.69
2023-03-06T20:58:54.698Z,24.69
2023-03-06T21:01:27.955Z,24.55
2023-03-06T21:03:59.374Z,24.53
2023-03-06T21:06:30.388Z,24.53
2023-03-06T21:09:02.299Z,24.54
2023-03-06T21:11:33.471Z,24.44
2023-03-06T21:14:03.626Z,24.40
2023-03-06T21:16:34.080Z,24.45
2023-03-06T21:19:04.300Z,24.48
2023-03-06T21:21:36.345Z,24.43
2023-03-06T21:24:06.504Z,24.47
2023-03-06T21:26:37.024Z,24.45
2023-03-06T21:29:07.422Z,24.49
2023-03-06T21:31:38.006Z,24.41
2023-03-06T21:34:08.160Z,24.46
2023-03-06T21:36:38.768Z,24.40
2023-03-06T21:39:08.572Z,24.34
2023-03-06T21:41:39.247Z,24.34
2023-03-06T21:44:09.479Z,24.38
2023-03-06T21:46:39.662Z,24.35
2023-03-06T21:49:09.998Z,24.31
2023-03-06T21:51:40.119Z,24.28
2023-03-06T21:54:12.012Z,24.27
2023-03-06T21:56:41.944Z,24.25
2023-03-06T21:59:12.170Z,24.25
2023-03-06T22:01:43.921Z,24.28
2023-03-06T22:04:16.623Z,24.23
2023-03-06T22:06:46.766Z,24.23
2023-03-06T22:09:20.191Z,24.08
2023-03-06T22:11:50.225Z,24.03
2023-03-06T22:14:20.660Z,23.91
2023-03-06T22:16:52.718Z,23.85
2023-03-06T22:19:23.130Z,23.89
2023-03-06T22:21:53.306Z,23.81
2023-03-06T22:24:23.668Z,23.81
2023-03-06T22:26:54.362Z,23.71
2023-03-06T22:29:25.468Z,23.82
2023-03-06T22:31:55.369Z,24.00
2023-03-06T22:34:27.682Z,23.98
2023-03-06T22:36:58.952Z,23.92
2023-03-06T22:39:29.198Z,24.04
2023-03-06T22:41:59.405Z,24.13
2023-03-06T22:44:29.700Z,24.16
2023-03-06T22:46:59.562Z,24.08
2023-03-06T22:49:33.016Z,23.87
2023-03-06T22:52:03.024Z,24.00
2023-03-06T22:54:33.055Z,24.13
2023-03-06T22:57:03.318Z,24.16
2023-03-06T22:59:33.054Z,24.11
2023-03-06T23:02:02.737Z,24.01
2023-03-06T23:04:33.062Z,23.99
2023-03-06T23:07:03.202Z,24.03
2023-03-06T23:09:34.216Z,24.19
2023-03-06T23:12:22.533Z,24.29
2023-03-06T23:15:13.119Z,24.26
2023-03-06T23:18:02.086Z,24.24
2023-03-06T23:20:50.149Z,24.17
2023-03-06T23:23:40.163Z,24.26
2023-03-06T23:26:15.655Z,24.22
2023-03-06T23:28:45.988Z,24.21
2023-03-06T23:31:20.796Z,24.22
2023-03-06T23:33:51.224Z,24.27
2023-03-06T23:36:21.556Z,24.25
2023-03-06T23:38:51.890Z,24.21
2023-03-06T23:41:23.126Z,24.21
2023-03-06T23:43:55.276Z,24.22
2023-03-06T23:46:27.326Z,24.24
2023-03-06T23:49:00.673Z,24.27
2023-03-06T23:51:31.830Z,24.22
2023-03-06T23:54:02.682Z,24.20
2023-03-06T23:56:33.966Z,24.20
2023-03-06T23:59:04.895Z,24.18
